createdAt,value
2022-10-25T00:01:32.217Z,101386.19
2022-10-25T00:04:02.288Z,101355.81
2022-10-25T00:06:28.972Z,101389.88
2022-10-25T00:08:57.336Z,101349.69
2022-10-25T00:11:29.198Z,101367.78
2022-10-25T00:13:59.233Z,101311.94
2022-10-25T00:16:33.167Z,101358.06
2022-10-25T00:18:59.744Z,101320.53
2022-10-25T00:21:29.049Z,101371.16
2022-10-25T00:23:55.699Z,101147.91
2022-10-25T00:26:22.608Z,101372.16
2022-10-25T00:28:49.386Z,101360.97
2022-10-25T00:31:17.299Z,101357.72
2022-10-25T00:33:44.997Z,101368.28
2022-10-25T00:36:17.365Z,101342.91
2022-10-25T00:38:46.370Z,101325.41
2022-10-25T00:41:15.220Z,101236.34
2022-10-25T00:43:51.888Z,101381.53
2022-10-25T00:46:18.419Z,101376.38
2022-10-25T00:48:56.453Z,101347.66
2022-10-25T00:51:29.660Z,101312.47
2022-10-25T00:53:56.706Z,101340.56
2022-10-25T00:56:29.338Z,101292.34
2022-10-25T00:59:01.214Z,101335.47
2022-10-25T01:01:28.395Z,101302.03
2022-10-25T01:03:58.113Z,101240.78
2022-10-25T01:06:32.074Z,101295.44
2022-10-25T01:08:59.803Z,101315.97
2022-10-25T01:11:26.416Z,101303.00
2022-10-25T01:13:53.977Z,101232.97
2022-10-25T01:16:37.857Z,101095.91
2022-10-25T01:19:36.344Z,101304.41
2022-10-25T01:22:20.787Z,101312.28
2022-10-25T01:25:02.759Z,101313.34
2022-10-25T01:27:44.233Z,101308.75
2022-10-25T01:30:24.283Z,101243.31
2022-10-25T01:33:12.600Z,101303.88
2022-10-25T01:35:52.938Z,101237.44
2022-10-25T01:38:35.274Z,101304.22
2022-10-25T01:41:04.915Z,101267.28
2022-10-25T01:44:04.023Z,101303.06
2022-10-25T01:46:53.901Z,101276.75
2022-10-25T01:49:31.960Z,101288.44
2022-10-25T01:52:00.516Z,101296.59
2022-10-25T01:54:27.608Z,101295.16
2022-10-25T01:57:16.040Z,101263.34
2022-10-25T02:00:21.209Z,101224.56
2022-10-25T02:02:50.570Z,101286.75
2022-10-25T02:05:48.476Z,101298.81
2022-10-25T02:08:37.097Z,101274.53
2022-10-25T02:11:06.803Z,101300.75
2022-10-25T02:14:01.839Z,101298.28
2022-10-25T02:16:41.044Z,101171.88
2022-10-25T02:19:14.822Z,101289.00
2022-10-25T02:21:46.102Z,101261.13
2022-10-25T02:24:20.628Z,101198.91
2022-10-25T02:29:21.276Z,101259.25
2022-10-25T02:31:51.030Z,101281.22
2022-10-25T02:34:19.279Z,101301.28
2022-10-25T02:36:50.448Z,101277.47
2022-10-25T02:39:21.834Z,101293.69
2022-10-25T02:41:48.572Z,101289.56
2022-10-25T02:44:15.254Z,101248.66
2022-10-25T02:46:42.237Z,101268.31
2022-10-25T02:49:15.932Z,101280.41
2022-10-25T02:51:42.686Z,101294.81
2022-10-25T02:54:09.305Z,101275.81
2022-10-25T02:56:38.600Z,101237.88
2022-10-25T02:59:05.397Z,101219.75
2022-10-25T03:01:35.231Z,101282.41
2022-10-25T03:04:02.189Z,101159.56
2022-10-25T03:06:30.917Z,101286.75
2022-10-25T03:09:00.507Z,101291.88
2022-10-25T03:11:30.555Z,101295.47
2022-10-25T03:13:58.539Z,101290.66
2022-10-25T03:16:25.456Z,101285.63
2022-10-25T03:18:52.055Z,101283.56
2022-10-25T03:21:19.049Z,101268.66
2022-10-25T03:23:49.852Z,101250.72
2022-10-25T03:26:16.502Z,101288.16
2022-10-25T03:28:45.572Z,101303.09
2022-10-25T03:31:14.028Z,101293.50
2022-10-25T03:33:42.705Z,101254.78
2022-10-25T03:36:10.067Z,101305.72
2022-10-25T03:38:39.011Z,101286.03
2022-10-25T03:41:07.692Z,101281.28
2022-10-25T03:43:43.619Z,101270.06
2022-10-25T03:46:16.256Z,101261.78
2022-10-25T03:48:43.504Z,101268.34
2022-10-25T03:51:10.207Z,101232.66
2022-10-25T03:53:36.867Z,101244.28
2022-10-25T03:56:22.436Z,101303.81
2022-10-25T03:59:03.765Z,101313.72
2022-10-25T04:01:36.896Z,101160.25
2022-10-25T04:04:22.597Z,101273.97
2022-10-25T04:07:25.687Z,101250.44
2022-10-25T04:10:07.678Z,101178.63
2022-10-25T04:13:10.105Z,101172.94
2022-10-25T04:15:47.702Z,101315.09
2022-10-25T04:18:50.952Z,101331.50
2022-10-25T04:27:36.692Z,101220.59
2022-10-25T04:30:51.142Z,101345.22
2022-10-25T04:33:56.051Z,101115.94
2022-10-25T04:36:49.401Z,101130.06
2022-10-25T04:39:34.250Z,101346.00
2022-10-25T04:42:11.248Z,101344.97
2022-10-25T04:44:51.131Z,101357.81
2022-10-25T04:47:31.777Z,101353.25
2022-10-25T04:50:22.450Z,101282.19
2022-10-25T04:53:10.931Z,101326.56
2022-10-25T04:56:04.630Z,101361.63
2022-10-25T04:58:40.352Z,101374.03
2022-10-25T05:01:32.526Z,101369.66
2022-10-25T05:04:04.234Z,101361.91
2022-10-25T05:06:35.090Z,101359.59
2022-10-25T05:09:10.540Z,101306.47
2022-10-25T05:11:49.899Z,101199.44
2022-10-25T05:14:34.492Z,101252.03
2022-10-25T05:17:11.223Z,101365.84
2022-10-25T05:19:56.355Z,101364.38
2022-10-25T05:22:44.000Z,101160.34
2022-10-25T05:25:34.046Z,101208.72
2022-10-25T05:28:14.858Z,101364.84
2022-10-25T05:30:56.698Z,101375.16
2022-10-25T05:33:29.983Z,101377.13
2022-10-25T05:39:09.430Z,101305.78
2022-10-25T05:44:41.138Z,101201.03
2022-10-25T05:47:16.932Z,101251.22
2022-10-25T05:50:07.239Z,101253.25
2022-10-25T05:52:49.843Z,101249.19
2022-10-25T05:55:24.513Z,101332.13
2022-10-25T05:58:12.616Z,101440.78
2022-10-25T06:00:39.886Z,101422.34
2022-10-25T06:03:41.741Z,101429.22
2022-10-25T06:06:42.872Z,101426.81
2022-10-25T06:09:36.202Z,101450.41
2022-10-25T06:12:21.117Z,101375.16
2022-10-25T06:14:57.572Z,101237.09
2022-10-25T06:17:42.404Z,101489.16
2022-10-25T06:20:23.731Z,101277.09
2022-10-25T06:23:40.578Z,101454.00
2022-10-25T06:26:37.323Z,101384.38
2022-10-25T06:29:40.332Z,101494.06
2022-10-25T06:38:04.437Z,101480.34
2022-10-25T06:41:09.217Z,101492.44
2022-10-25T06:43:44.502Z,101353.44
2022-10-25T06:46:36.085Z,101365.06
2022-10-25T06:49:10.401Z,101428.53
2022-10-25T06:51:48.914Z,101520.25
2022-10-25T06:54:16.963Z,101489.34
2022-10-25T06:56:48.643Z,101482.81
2022-10-25T06:59:19.542Z,101480.63
2022-10-25T07:01:51.180Z,101508.22
2022-10-25T07:04:24.092Z,101430.75
2022-10-25T07:06:55.198Z,101529.66
2022-10-25T07:09:22.328Z,101542.63
2022-10-25T07:11:49.458Z,101534.00
2022-10-25T07:14:17.036Z,101491.53
2022-10-25T07:16:50.426Z,101506.00
2022-10-25T07:19:21.250Z,101549.69
2022-10-25T07:21:50.041Z,101546.47
2022-10-25T07:24:22.508Z,101536.19
2022-10-25T07:26:54.072Z,101520.75
2022-10-25T07:29:25.007Z,101560.09
2022-10-25T07:32:02.361Z,101393.47
2022-10-25T07:34:35.770Z,101567.75
2022-10-25T07:37:04.374Z,101569.28
2022-10-25T07:39:34.768Z,101354.53
2022-10-25T07:42:02.929Z,101580.56
2022-10-25T07:44:33.972Z,101589.66
2022-10-25T07:47:07.110Z,101592.38
2022-10-25T07:49:40.909Z,101594.75
2022-10-25T07:52:16.923Z,101511.72
2022-10-25T07:54:49.856Z,101586.34
2022-10-25T07:57:25.803Z,101602.00
2022-10-25T07:59:58.295Z,101584.50
2022-10-25T08:02:28.855Z,101563.19
2022-10-25T08:04:57.613Z,101614.63
2022-10-25T08:07:40.627Z,101519.31
2022-10-25T08:10:08.469Z,101368.00
2022-10-25T08:12:46.393Z,101407.78
2022-10-25T08:15:21.594Z,101467.44
2022-10-25T08:17:53.285Z,101504.22
2022-10-25T08:20:29.290Z,101586.44
2022-10-25T08:23:14.936Z,101538.66
2022-10-25T08:25:44.143Z,101579.47
2022-10-25T08:28:21.472Z,101603.47
2022-10-25T08:30:50.823Z,101617.91
2022-10-25T08:33:36.602Z,101612.84
2022-10-25T08:36:14.402Z,101565.03
2022-10-25T08:39:05.282Z,101571.72
2022-10-25T08:41:59.921Z,101608.97
2022-10-25T08:45:48.493Z,101518.75
2022-10-25T08:48:26.559Z,101482.38
2022-10-25T08:51:08.164Z,101543.53
2022-10-25T08:53:42.709Z,101595.41
2022-10-25T08:56:17.850Z,101642.44
2022-10-25T08:59:08.047Z,101643.50
2022-10-25T09:01:47.632Z,101556.66
2022-10-25T09:04:21.658Z,101601.66
2022-10-25T09:07:19.937Z,101435.09
2022-10-25T09:10:01.319Z,101537.69
2022-10-25T09:12:47.389Z,101633.06
2022-10-25T09:15:48.119Z,101558.78
2022-10-25T09:18:25.549Z,101482.06
2022-10-25T09:20:59.754Z,101521.19
2022-10-25T09:23:41.244Z,101556.66
2022-10-25T09:26:27.096Z,101370.22
2022-10-25T09:29:15.729Z,101551.63
2022-10-25T09:32:00.975Z,101382.25
2022-10-25T09:34:39.986Z,101432.53
2022-10-25T09:37:51.847Z,101572.75
2022-10-25T09:40:24.663Z,101652.53
2022-10-25T09:43:31.592Z,101372.28
2022-10-25T09:46:06.688Z,101557.03
2022-10-25T09:48:49.718Z,101464.41
2022-10-25T09:51:35.007Z,101629.13
2022-10-25T09:54:25.421Z,101595.31
2022-10-25T09:57:02.829Z,101632.00
2022-10-25T09:59:41.134Z,101445.25
2022-10-25T10:02:23.908Z,101430.78
2022-10-25T10:05:10.107Z,101437.84
2022-10-25T10:07:47.552Z,101461.31
2022-10-25T10:10:31.540Z,101591.22
2022-10-25T10:13:06.717Z,101662.34
2022-10-25T10:16:03.730Z,101561.16
2022-10-25T10:18:37.864Z,101584.69
2022-10-25T10:21:07.440Z,101673.50
2022-10-25T10:23:57.943Z,101678.72
2022-10-25T10:26:58.766Z,101683.28
2022-10-25T10:29:31.013Z,101592.03
2022-10-25T10:32:30.564Z,101452.19
2022-10-25T10:35:03.224Z,101409.41
2022-10-25T10:37:42.712Z,101664.84
2022-10-25T10:40:31.111Z,101402.06
2022-10-25T10:43:27.167Z,101428.34
2022-10-25T10:46:03.732Z,101579.75
2022-10-25T10:48:46.235Z,101644.19
2022-10-25T10:51:42.572Z,101587.75
2022-10-25T10:54:49.899Z,101523.06
2022-10-25T10:57:54.287Z,101457.69
2022-10-25T11:00:37.268Z,101526.34
2022-10-25T11:03:59.514Z,101630.28
2022-10-25T11:06:50.427Z,101404.50
2022-10-25T11:09:29.764Z,101630.19
2022-10-25T11:12:19.706Z,101372.53
2022-10-25T11:15:07.514Z,101563.22
2022-10-25T11:17:48.562Z,101437.28
2022-10-25T11:21:18.294Z,101589.81
2022-10-25T11:24:10.275Z,101628.72
2022-10-25T11:30:15.634Z,101503.31
2022-10-25T11:33:11.236Z,101630.69
2022-10-25T11:35:48.894Z,101371.59
2022-10-25T11:38:34.374Z,101619.84
2022-10-25T11:41:52.317Z,101490.53
2022-10-25T11:44:46.410Z,101580.59
2022-10-25T11:47:35.857Z,101623.22
2022-10-25T11:50:19.935Z,101562.47
2022-10-25T11:53:16.861Z,101603.59
2022-10-25T11:56:20.668Z,101602.78
2022-10-25T11:59:38.070Z,101607.78
2022-10-25T12:02:40.435Z,101587.69
2022-10-25T12:05:27.668Z,101585.94
2022-10-25T12:08:32.837Z,101582.78
2022-10-25T12:11:15.126Z,101360.00
2022-10-25T12:14:01.643Z,101570.72
2022-10-25T12:16:52.035Z,101541.16
2022-10-25T12:19:33.107Z,101433.09
2022-10-25T12:22:16.649Z,101341.59
2022-10-25T12:25:09.704Z,101460.41
2022-10-25T12:28:01.091Z,101518.25
2022-10-25T12:30:50.662Z,101515.97
2022-10-25T12:33:44.478Z,101555.84
2022-10-25T12:36:42.033Z,101366.75
2022-10-25T12:39:28.235Z,101463.28
2022-10-25T12:42:39.827Z,101499.94
2022-10-25T12:45:29.702Z,101489.53
2022-10-25T12:48:09.197Z,101425.75
2022-10-25T12:51:18.104Z,101435.59
2022-10-25T12:54:09.832Z,101562.78
2022-10-25T12:57:05.682Z,101558.78
2022-10-25T12:59:53.814Z,101556.72
2022-10-25T13:02:48.377Z,101561.13
2022-10-25T13:05:49.705Z,101360.19
2022-10-25T13:08:35.288Z,101488.88
2022-10-25T13:11:08.547Z,101560.72
2022-10-25T13:13:41.712Z,101508.56
2022-10-25T13:16:11.433Z,101557.47
2022-10-25T13:18:42.783Z,101479.91
2022-10-25T13:21:14.737Z,101554.59
2022-10-25T13:24:01.056Z,101448.09
2022-10-25T13:26:32.093Z,101466.06
2022-10-25T13:29:25.822Z,101351.69
2022-10-25T13:32:10.331Z,101555.41
2022-10-25T13:34:43.799Z,101390.41
2022-10-25T13:37:32.926Z,101547.31
2022-10-25T13:42:59.078Z,101412.34
2022-10-25T13:45:41.478Z,101347.50
2022-10-25T13:48:31.405Z,101547.66
2022-10-25T13:51:12.707Z,101337.88
2022-10-25T13:53:43.951Z,101547.03
2022-10-25T13:56:48.210Z,101378.22
2022-10-25T14:03:11.807Z,101539.13
2022-10-25T14:06:03.640Z,101539.59
2022-10-25T14:08:52.316Z,101443.56
2022-10-25T14:11:38.799Z,101362.69
2022-10-25T14:14:30.215Z,101463.88
2022-10-25T14:17:56.439Z,101285.41
2022-10-25T14:20:46.731Z,101533.13
2022-10-25T14:23:24.357Z,101444.25
2022-10-25T14:26:15.435Z,101408.25
2022-10-25T14:28:51.505Z,101360.97
2022-10-25T14:31:26.231Z,101461.97
2022-10-25T14:33:58.365Z,101534.13
2022-10-25T14:36:41.901Z,101361.22
2022-10-25T14:39:31.059Z,101402.63
2022-10-25T14:42:12.298Z,101335.50
2022-10-25T14:45:21.436Z,101404.06
2022-10-25T14:47:50.956Z,101471.84
2022-10-25T14:50:29.899Z,101327.81
2022-10-25T14:53:09.200Z,101334.63
2022-10-25T14:55:42.062Z,101352.63
2022-10-25T14:58:17.431Z,101531.41
2022-10-25T15:01:13.199Z,101535.81
2022-10-25T15:04:03.164Z,101398.63
2022-10-25T15:06:39.236Z,101463.59
2022-10-25T15:09:43.364Z,101533.28
2022-10-25T15:12:13.003Z,101527.03
2022-10-25T15:14:43.660Z,101455.47
2022-10-25T15:17:52.585Z,101471.34
2022-10-25T15:20:25.190Z,101518.69
2022-10-25T15:23:03.656Z,101517.81
2022-10-25T15:25:39.041Z,101454.63
2022-10-25T15:28:33.154Z,101520.31
2022-10-25T15:31:07.913Z,101444.00
2022-10-25T15:33:54.367Z,101516.78
2022-10-25T15:36:34.146Z,101315.19
2022-10-25T15:39:16.882Z,101366.75
2022-10-25T15:42:10.475Z,101308.66
2022-10-25T15:44:51.345Z,101350.34
2022-10-25T15:47:55.512Z,101370.94
2022-10-25T15:50:23.551Z,101370.41
2022-10-25T15:52:54.599Z,101517.19
2022-10-25T15:55:33.411Z,101450.03
2022-10-25T15:58:09.790Z,101509.63
2022-10-25T16:00:41.017Z,101511.72
2022-10-25T16:03:11.072Z,101522.53
2022-10-25T16:05:40.197Z,101525.84
2022-10-25T16:08:08.735Z,101485.63
2022-10-25T16:10:38.881Z,101427.22
2022-10-25T16:13:13.753Z,101357.47
2022-10-25T16:15:42.426Z,101453.09
2022-10-25T16:18:20.025Z,101491.75
2022-10-25T16:20:50.313Z,101369.47
2022-10-25T16:23:19.971Z,101466.59
2022-10-25T16:25:53.160Z,101330.53
2022-10-25T16:28:26.683Z,101294.88
2022-10-25T16:30:56.543Z,101517.47
2022-10-25T16:33:37.190Z,101554.84
2022-10-25T16:36:04.799Z,101417.22
2022-10-25T16:39:16.730Z,101555.00
2022-10-25T16:42:05.209Z,101489.56
2022-10-25T16:44:41.633Z,101452.25
2022-10-25T16:47:30.489Z,101556.53
2022-10-25T16:50:27.486Z,101559.81
2022-10-25T16:53:38.250Z,101514.31
2022-10-25T16:56:15.290Z,101475.28
2022-10-25T16:59:06.772Z,101565.72
2022-10-25T17:02:13.772Z,101488.56
2022-10-25T17:04:47.727Z,101484.53
2022-10-25T17:07:21.101Z,101512.50
2022-10-25T17:09:58.889Z,101367.63
2022-10-25T17:13:14.612Z,101593.66
2022-10-25T17:16:13.580Z,101520.81
2022-10-25T17:18:44.001Z,101526.22
2022-10-25T17:21:19.773Z,101519.06
2022-10-25T17:23:53.318Z,101597.06
2022-10-25T17:26:23.620Z,101470.28
2022-10-25T17:28:51.003Z,101489.63
2022-10-25T17:31:18.052Z,101621.56
2022-10-25T17:33:58.721Z,101509.84
2022-10-25T17:36:29.238Z,101432.97
2022-10-25T17:38:56.117Z,101613.72
2022-10-25T17:41:23.239Z,101543.22
2022-10-25T17:43:56.069Z,101537.16
2022-10-25T17:46:29.301Z,101626.59
2022-10-25T17:49:05.333Z,101487.72
2022-10-25T17:51:46.137Z,101562.78
2022-10-25T17:54:19.006Z,101411.16
2022-10-25T17:57:05.899Z,101375.56
2022-10-25T17:59:45.860Z,101508.28
2022-10-25T18:02:33.772Z,101496.28
2022-10-25T18:05:19.874Z,101385.94
2022-10-25T18:08:19.152Z,101637.91
2022-10-25T18:10:46.186Z,101596.88
2022-10-25T18:13:14.312Z,101552.94
2022-10-25T18:15:41.522Z,101601.16
2022-10-25T18:18:15.259Z,101611.31
2022-10-25T18:20:51.533Z,101560.34
2022-10-25T18:23:30.062Z,101535.66
2022-10-25T18:25:58.866Z,101545.34
2022-10-25T18:28:32.370Z,101624.25
2022-10-25T18:31:14.082Z,101521.75
2022-10-25T18:33:51.666Z,101606.78
2022-10-25T18:39:51.032Z,101634.41
2022-10-25T18:42:20.561Z,101655.38
2022-10-25T18:45:18.271Z,101548.75
2022-10-25T18:47:49.777Z,101648.56
2022-10-25T18:50:16.978Z,101611.28
2022-10-25T18:52:46.516Z,101644.25
2022-10-25T18:55:28.931Z,101653.66
2022-10-25T18:57:56.305Z,101643.63
2022-10-25T19:00:47.966Z,101650.69
2022-10-25T19:04:27.039Z,101658.09
2022-10-25T19:07:16.428Z,101448.38
2022-10-25T19:15:29.902Z,101669.53
2022-10-25T19:17:59.314Z,101644.19
2022-10-25T19:20:37.340Z,101422.03
2022-10-25T19:23:15.560Z,101512.69
2022-10-25T19:25:57.544Z,101596.97
2022-10-25T19:28:26.096Z,101662.97
2022-10-25T19:31:08.842Z,101573.81
2022-10-25T19:33:44.675Z,101530.66
2022-10-25T19:36:23.313Z,101663.78
2022-10-25T19:38:51.054Z,101486.84
2022-10-25T19:41:23.423Z,101556.81
2022-10-25T19:43:51.826Z,101418.84
2022-10-25T19:46:28.037Z,101479.16
2022-10-25T19:49:00.636Z,101619.75
2022-10-25T19:51:53.675Z,101671.22
2022-10-25T19:54:22.643Z,101469.28
2022-10-25T19:56:53.226Z,101627.91
2022-10-25T19:59:24.840Z,101580.84
2022-10-25T20:01:53.046Z,101671.31
2022-10-25T20:04:27.234Z,101594.31
2022-10-25T20:06:59.598Z,101621.91
2022-10-25T20:09:28.358Z,101681.06
2022-10-25T20:12:03.778Z,101508.69
2022-10-25T20:14:45.633Z,101535.88
2022-10-25T20:17:13.703Z,101613.19
2022-10-25T20:19:40.957Z,101600.44
2022-10-25T20:22:07.980Z,101539.00
2022-10-25T20:24:42.922Z,101685.88
2022-10-25T20:27:18.766Z,101457.97
2022-10-25T20:29:51.916Z,101612.44
2022-10-25T20:32:30.818Z,101522.84
2022-10-25T20:35:07.999Z,101629.75
2022-10-25T20:37:34.917Z,101699.56
2022-10-25T20:40:05.260Z,101551.13
2022-10-25T20:42:35.574Z,101696.38
2022-10-25T20:45:06.875Z,101472.16
2022-10-25T20:47:34.923Z,101630.47
2022-10-25T20:50:03.887Z,101704.97
2022-10-25T20:52:34.526Z,101536.34
2022-10-25T20:55:04.805Z,101612.00
2022-10-25T20:57:34.072Z,101679.88
2022-10-25T21:00:01.211Z,101619.59
2022-10-25T21:02:30.259Z,101690.88
2022-10-25T21:05:02.380Z,101648.19
2022-10-25T21:07:49.894Z,101631.53
2022-10-25T21:10:18.101Z,101565.97
2022-10-25T21:12:50.836Z,101710.28
2022-10-25T21:15:17.868Z,101537.03
2022-10-25T21:17:49.645Z,101647.41
2022-10-25T21:20:23.061Z,101707.25
2022-10-25T21:22:50.620Z,101598.09
2022-10-25T21:25:18.161Z,101544.31
2022-10-25T21:27:46.243Z,101506.47
2022-10-25T21:30:16.374Z,101563.13
2022-10-25T21:32:49.682Z,101709.47
2022-10-25T21:35:26.773Z,101492.38
2022-10-25T21:38:00.822Z,101565.34
2022-10-25T21:40:31.385Z,101579.81
2022-10-25T21:42:58.743Z,101691.50
2022-10-25T21:45:26.993Z,101629.56
2022-10-25T21:47:54.966Z,101563.16
2022-10-25T21:50:25.844Z,101509.31
2022-10-25T21:52:55.220Z,101709.72
2022-10-25T21:55:22.792Z,101732.63
2022-10-25T21:57:51.909Z,101580.50
2022-10-25T22:00:26.715Z,101724.88
2022-10-25T22:02:56.441Z,101500.72
2022-10-25T22:05:27.269Z,101612.75
2022-10-25T22:08:04.868Z,101563.31
2022-10-25T22:10:32.882Z,101641.03
2022-10-25T22:13:04.064Z,101628.25
2022-10-25T22:15:34.682Z,101623.88
2022-10-25T22:18:04.503Z,101710.22
2022-10-25T22:20:31.617Z,101686.97
2022-10-25T22:23:01.905Z,101585.00
2022-10-25T22:25:28.571Z,101637.50
2022-10-25T22:27:56.962Z,101618.81
2022-10-25T22:30:29.596Z,101717.59
2022-10-25T22:32:58.910Z,101627.91
2022-10-25T22:35:36.763Z,101718.63
2022-10-25T22:38:05.790Z,101479.47
2022-10-25T22:40:35.238Z,101639.69
2022-10-25T22:43:06.529Z,101711.03
2022-10-25T22:45:36.021Z,101709.69
2022-10-25T22:48:06.765Z,101719.28
2022-10-25T22:50:33.940Z,101723.00
2022-10-25T22:53:03.687Z,101725.50
2022-10-25T22:55:36.313Z,101702.25
2022-10-25T22:58:05.785Z,101532.38
2022-10-25T23:00:35.184Z,101733.22
2022-10-25T23:03:03.171Z,101604.91
2022-10-25T23:05:32.072Z,101676.00
2022-10-25T23:07:58.639Z,101700.59
2022-10-25T23:10:25.360Z,101655.09
2022-10-25T23:12:52.263Z,101714.19
2022-10-25T23:15:19.275Z,101729.84
2022-10-25T23:20:17.651Z,101698.22
2022-10-25T23:22:47.800Z,101610.31
2022-10-25T23:25:14.796Z,101675.69
2022-10-25T23:27:41.400Z,101728.19
2022-10-25T23:30:11.195Z,101712.69
2022-10-25T23:32:41.977Z,101678.53
2022-10-25T23:35:12.144Z,101726.19
2022-10-25T23:37:42.234Z,101699.25
2022-10-25T23:40:09.670Z,101592.97
2022-10-25T23:42:36.472Z,101736.25
2022-10-25T23:45:05.449Z,101698.53
2022-10-25T23:47:32.483Z,101697.69
2022-10-25T23:50:02.333Z,101723.28
2022-10-25T23:52:38.550Z,101700.50
2022-10-25T23:55:08.034Z,101653.63
2022-10-25T23:57:36.793Z,101741.25
